sensor_id;sensor_type;location;lat;lon;timestamp;P1;durP1;ratioP1;P2;durP2;ratioP2
7193;SDS011;3638;48.820;9.244;2024-02-14T00:00:11;10.17;;;7.97;;
7193;SDS011;3638;48.820;9.244;2024-02-14T00:02:39;14.10;;;8.93;;
7193;SDS011;3638;48.820;9.244;2024-02-14T00:05:07;10.20;;;7.60;;
7193;SDS011;3638;48.820;9.244;2024-02-14T00:07:36;9.67;;;8.67;;
7193;SDS011;3638;48.820;9.244;2024-02-14T00:10:05;9.90;;;7.97;;
7193;SDS011;3638;48.820;9.244;2024-02-14T00:12:32;11.77;;;7.70;;
7193;SDS011;3638;48.820;9.244;2024-02-14T00:15:02;9.17;;;7.77;;
7193;SDS011;3638;48.820;9.244;2024-02-14T00:17:31;10.33;;;7.83;;
7193;SDS011;3638;48.820;9.244;2024-02-14T00:19:59;9.30;;;7.57;;
7193;SDS011;3638;48.820;9.244;2024-02-14T00:22:26;8.40;;;7.40;;
7193;SDS011;3638;48.820;9.244;2024-02-14T00:24:54;9.53;;;7.47;;
7193;SDS011;3638;48.820;9.244;2024-02-14T00:27:21;11.53;;;8.57;;
7193;SDS011;3638;48.820;9.244;2024-02-14T00:29:49;7.90;;;6.80;;
7193;SDS011;3638;48.820;9.244;2024-02-14T00:32:20;8.70;;;7.80;;
7193;SDS011;3638;48.820;9.244;2024-02-14T00:34:47;12.23;;;7.80;;
7193;SDS011;3638;48.820;9.244;2024-02-14T00:37:15;9.17;;;7.57;;
7193;SDS011;3638;48.820;9.244;2024-02-14T00:39:42;9.60;;;7.77;;
7193;SDS011;3638;48.820;9.244;2024-02-14T00:42:10;10.13;;;8.20;;
7193;SDS011;3638;48.820;9.244;2024-02-14T00:44:37;11.47;;;8.53;;
7193;SDS011;3638;48.820;9.244;2024-02-14T00:47:05;9.80;;;8.17;;
7193;SDS011;3638;48.820;9.244;2024-02-14T00:49:35;14.20;;;8.37;;
7193;SDS011;3638;48.820;9.244;2024-02-14T00:52:04;9.63;;;8.10;;
7193;SDS011;3638;48.820;9.244;2024-02-14T00:54:31;12.00;;;8.57;;
7193;SDS011;3638;48.820;9.244;2024-02-14T00:57:00;11.93;;;7.70;;
7193;SDS011;3638;48.820;9.244;2024-02-14T00:59:27;10.93;;;7.80;;
7193;SDS011;3638;48.820;9.244;2024-02-14T01:01:54;11.63;;;7.57;;
7193;SDS011;3638;48.820;9.244;2024-02-14T01:04:22;9.63;;;7.60;;
7193;SDS011;3638;48.820;9.244;2024-02-14T01:06:51;11.57;;;7.27;;
7193;SDS011;3638;48.820;9.244;2024-02-14T01:09:18;10.73;;;7.63;;
7193;SDS011;3638;48.820;9.244;2024-02-14T01:11:45;8.77;;;7.13;;
7193;SDS011;3638;48.820;9.244;2024-02-14T01:14:13;7.90;;;7.03;;
7193;SDS011;3638;48.820;9.244;2024-02-14T01:16:44;9.47;;;7.33;;
7193;SDS011;3638;48.820;9.244;2024-02-14T01:19:11;10.10;;;7.17;;
7193;SDS011;3638;48.820;9.244;2024-02-14T01:21:39;7.87;;;6.20;;
7193;SDS011;3638;48.820;9.244;2024-02-14T01:24:08;8.93;;;6.80;;
7193;SDS011;3638;48.820;9.244;2024-02-14T01:26:35;9.20;;;6.33;;
7193;SDS011;3638;48.820;9.244;2024-02-14T01:29:03;8.97;;;6.40;;
7193;SDS011;3638;48.820;9.244;2024-02-14T01:31:30;8.43;;;6.90;;
7193;SDS011;3638;48.820;9.244;2024-02-14T01:33:59;8.60;;;7.00;;
7193;SDS011;3638;48.820;9.244;2024-02-14T01:36:26;12.57;;;6.43;;
7193;SDS011;3638;48.820;9.244;2024-02-14T01:38:54;9.03;;;6.73;;
7193;SDS011;3638;48.820;9.244;2024-02-14T01:41:25;9.17;;;6.60;;
7193;SDS011;3638;48.820;9.244;2024-02-14T01:43:52;8.67;;;6.37;;
7193;SDS011;3638;48.820;9.244;2024-02-14T01:46:19;8.53;;;5.77;;
7193;SDS011;3638;48.820;9.244;2024-02-14T01:48:47;8.17;;;6.43;;
7193;SDS011;3638;48.820;9.244;2024-02-14T01:51:14;9.27;;;6.17;;
7193;SDS011;3638;48.820;9.244;2024-02-14T01:53:43;8.93;;;6.17;;
7193;SDS011;3638;48.820;9.244;2024-02-14T01:56:10;6.93;;;5.50;;
7193;SDS011;3638;48.820;9.244;2024-02-14T01:58:39;6.00;;;5.20;;
7193;SDS011;3638;48.820;9.244;2024-02-14T02:01:08;8.00;;;5.13;;
7193;SDS011;3638;48.820;9.244;2024-02-14T02:03:35;6.07;;;4.90;;
7193;SDS011;3638;48.820;9.244;2024-02-14T02:06:03;7.13;;;5.03;;
7193;SDS011;3638;48.820;9.244;2024-02-14T02:08:31;6.27;;;4.93;;
7193;SDS011;3638;48.820;9.244;2024-02-14T02:10:58;6.23;;;4.93;;
7193;SDS011;3638;48.820;9.244;2024-02-14T02:13:26;6.87;;;4.87;;
7193;SDS011;3638;48.820;9.244;2024-02-14T02:15:55;6.63;;;4.90;;
7193;SDS011;3638;48.820;9.244;2024-02-14T02:18:22;8.33;;;4.90;;
7193;SDS011;3638;48.820;9.244;2024-02-14T02:20:50;5.70;;;4.80;;
7193;SDS011;3638;48.820;9.244;2024-02-14T02:23:19;8.43;;;5.23;;
7193;SDS011;3638;48.820;9.244;2024-02-14T02:25:47;7.90;;;4.70;;
7193;SDS011;3638;48.820;9.244;2024-02-14T02:28:15;5.47;;;4.43;;
7193;SDS011;3638;48.820;9.244;2024-02-14T02:30:42;7.07;;;4.90;;
7193;SDS011;3638;48.820;9.244;2024-02-14T02:33:11;6.17;;;4.57;;
7193;SDS011;3638;48.820;9.244;2024-02-14T02:35:41;5.93;;;4.90;;
7193;SDS011;3638;48.820;9.244;2024-02-14T02:38:10;5.70;;;4.63;;
7193;SDS011;3638;48.820;9.244;2024-02-14T02:40:39;6.77;;;4.60;;
7193;SDS011;3638;48.820;9.244;2024-02-14T02:43:06;5.60;;;4.60;;
7193;SDS011;3638;48.820;9.244;2024-02-14T02:45:35;4.83;;;4.17;;
7193;SDS011;3638;48.820;9.244;2024-02-14T02:48:03;6.60;;;4.50;;
7193;SDS011;3638;48.820;9.244;2024-02-14T02:50:31;7.60;;;4.67;;
7193;SDS011;3638;48.820;9.244;2024-02-14T02:52:58;5.67;;;4.27;;
7193;SDS011;3638;48.820;9.244;2024-02-14T02:55:26;6.07;;;4.43;;
7193;SDS011;3638;48.820;9.244;2024-02-14T02:57:55;6.07;;;4.47;;
7193;SDS011;3638;48.820;9.244;2024-02-14T03:00:25;5.93;;;5.00;;
7193;SDS011;3638;48.820;9.244;2024-02-14T03:02:54;6.17;;;4.80;;
7193;SDS011;3638;48.820;9.244;2024-02-14T03:05:21;4.80;;;4.37;;
7193;SDS011;3638;48.820;9.244;2024-02-14T03:07:49;8.17;;;4.53;;
7193;SDS011;3638;48.820;9.244;2024-02-14T03:10:17;8.07;;;4.40;;
7193;SDS011;3638;48.820;9.244;2024-02-14T03:12:46;7.30;;;4.37;;
7193;SDS011;3638;48.820;9.244;2024-02-14T03:15:15;6.27;;;4.30;;
7193;SDS011;3638;48.820;9.244;2024-02-14T03:17:43;5.70;;;4.40;;
7193;SDS011;3638;48.820;9.244;2024-02-14T03:20:11;8.17;;;4.73;;
7193;SDS011;3638;48.820;9.244;2024-02-14T03:22:39;8.40;;;4.60;;
7193;SDS011;3638;48.820;9.244;2024-02-14T03:25:11;9.20;;;4.60;;
7193;SDS011;3638;48.820;9.244;2024-02-14T03:27:39;8.07;;;4.30;;
7193;SDS011;3638;48.820;9.244;2024-02-14T03:30:07;6.37;;;4.73;;
7193;SDS011;3638;48.820;9.244;2024-02-14T03:32:36;4.87;;;4.37;;
7193;SDS011;3638;48.820;9.244;2024-02-14T03:35:04;7.00;;;5.13;;
7193;SDS011;3638;48.820;9.244;2024-02-14T03:37:31;7.47;;;5.17;;
7193;SDS011;3638;48.820;9.244;2024-02-14T03:39:59;6.93;;;5.67;;
7193;SDS011;3638;48.820;9.244;2024-02-14T03:42:29;10.20;;;5.97;;
7193;SDS011;3638;48.820;9.244;2024-02-14T03:44:57;9.30;;;6.37;;
7193;SDS011;3638;48.820;9.244;2024-02-14T03:47:27;11.93;;;6.60;;
7193;SDS011;3638;48.820;9.244;2024-02-14T03:49:57;8.47;;;6.03;;
7193;SDS011;3638;48.820;9.244;2024-02-14T03:52:25;7.90;;;6.03;;
7193;SDS011;3638;48.820;9.244;2024-02-14T03:54:52;8.00;;;6.10;;
7193;SDS011;3638;48.820;9.244;2024-02-14T03:57:19;7.90;;;6.00;;
7193;SDS011;3638;48.820;9.244;2024-02-14T03:59:47;7.77;;;5.47;;
7193;SDS011;3638;48.820;9.244;2024-02-14T04:02:14;8.70;;;6.03;;
7193;SDS011;3638;48.820;9.244;2024-02-14T04:04:42;8.83;;;5.43;;
7193;SDS011;3638;48.820;9.244;2024-02-14T04:07:13;10.57;;;6.57;;
7193;SDS011;3638;48.820;9.244;2024-02-14T04:09:41;6.63;;;5.90;;
7193;SDS011;3638;48.820;9.244;2024-02-14T04:12:08;9.20;;;5.87;;
7193;SDS011;3638;48.820;9.244;2024-02-14T04:14:36;8.67;;;5.90;;
7193;SDS011;3638;48.820;9.244;2024-02-14T04:17:05;6.50;;;4.87;;
7193;SDS011;3638;48.820;9.244;2024-02-14T04:19:32;7.37;;;5.43;;
7193;SDS011;3638;48.820;9.244;2024-02-14T04:22:00;6.17;;;4.97;;
7193;SDS011;3638;48.820;9.244;2024-02-14T04:24:29;6.00;;;4.53;;
7193;SDS011;3638;48.820;9.244;2024-02-14T04:26:56;6.50;;;4.40;;
7193;SDS011;3638;48.820;9.244;2024-02-14T04:29:23;7.40;;;4.60;;
7193;SDS011;3638;48.820;9.244;2024-02-14T04:31:53;6.17;;;4.60;;
7193;SDS011;3638;48.820;9.244;2024-02-14T04:34:20;5.73;;;4.20;;
7193;SDS011;3638;48.820;9.244;2024-02-14T04:36:48;5.53;;;4.50;;
7193;SDS011;3638;48.820;9.244;2024-02-14T04:39:16;7.73;;;4.60;;
7193;SDS011;3638;48.820;9.244;2024-02-14T04:41:45;6.67;;;4.63;;
7193;SDS011;3638;48.820;9.244;2024-02-14T04:44:15;7.40;;;4.93;;
7193;SDS011;3638;48.820;9.244;2024-02-14T04:46:42;6.97;;;5.40;;
7193;SDS011;3638;48.820;9.244;2024-02-14T04:49:10;8.80;;;4.87;;
7193;SDS011;3638;48.820;9.244;2024-02-14T04:51:39;5.70;;;4.70;;
7193;SDS011;3638;48.820;9.244;2024-02-14T04:54:07;7.53;;;5.10;;
7193;SDS011;3638;48.820;9.244;2024-02-14T04:56:35;6.43;;;4.63;;
7193;SDS011;3638;48.820;9.244;2024-02-14T04:59:04;5.57;;;4.77;;
7193;SDS011;3638;48.820;9.244;2024-02-14T05:01:31;5.23;;;4.73;;
7193;SDS011;3638;48.820;9.244;2024-02-14T05:03:59;5.80;;;4.63;;
7193;SDS011;3638;48.820;9.244;2024-02-14T05:06:28;5.27;;;4.60;;
7193;SDS011;3638;48.820;9.244;2024-02-14T05:08:55;6.00;;;4.53;;
7193;SDS011;3638;48.820;9.244;2024-02-14T05:11:22;8.03;;;4.87;;
7193;SDS011;3638;48.820;9.244;2024-02-14T05:13:50;5.87;;;4.37;;
7193;SDS011;3638;48.820;9.244;2024-02-14T05:16:19;6.00;;;4.77;;
7193;SDS011;3638;48.820;9.244;2024-02-14T05:18:46;6.93;;;4.63;;
7193;SDS011;3638;48.820;9.244;2024-02-14T05:21:15;4.50;;;4.03;;
7193;SDS011;3638;48.820;9.244;2024-02-14T05:23:42;5.27;;;3.87;;
7193;SDS011;3638;48.820;9.244;2024-02-14T05:26:10;6.47;;;4.07;;
7193;SDS011;3638;48.820;9.244;2024-02-14T05:28:37;5.70;;;4.20;;
7193;SDS011;3638;48.820;9.244;2024-02-14T05:31:05;6.80;;;4.40;;
7193;SDS011;3638;48.820;9.244;2024-02-14T05:33:34;8.83;;;4.90;;
7193;SDS011;3638;48.820;9.244;2024-02-14T05:36:01;5.30;;;4.77;;
7193;SDS011;3638;48.820;9.244;2024-02-14T05:38:30;8.57;;;5.10;;
7193;SDS011;3638;48.820;9.244;2024-02-14T05:40:58;7.67;;;4.67;;
7193;SDS011;3638;48.820;9.244;2024-02-14T05:43:26;7.53;;;5.17;;
7193;SDS011;3638;48.820;9.244;2024-02-14T05:45:54;7.17;;;5.10;;
7193;SDS011;3638;48.820;9.244;2024-02-14T05:48:21;6.23;;;4.60;;
7193;SDS011;3638;48.820;9.244;2024-02-14T05:50:50;7.30;;;5.07;;
7193;SDS011;3638;48.820;9.244;2024-02-14T05:53:17;6.27;;;4.60;;
7193;SDS011;3638;48.820;9.244;2024-02-14T05:55:45;5.83;;;4.10;;
7193;SDS011;3638;48.820;9.244;2024-02-14T05:58:12;6.27;;;4.70;;
7193;SDS011;3638;48.820;9.244;2024-02-14T06:00:40;7.33;;;4.70;;
7193;SDS011;3638;48.820;9.244;2024-02-14T06:03:08;7.37;;;4.50;;
7193;SDS011;3638;48.820;9.244;2024-02-14T06:05:35;5.20;;;4.40;;
7193;SDS011;3638;48.820;9.244;2024-02-14T06:08:04;6.23;;;4.40;;
7193;SDS011;3638;48.820;9.244;2024-02-14T06:10:32;5.10;;;4.60;;
7193;SDS011;3638;48.820;9.244;2024-02-14T06:13:00;5.93;;;5.20;;
7193;SDS011;3638;48.820;9.244;2024-02-14T06:15:27;6.07;;;4.90;;
7193;SDS011;3638;48.820;9.244;2024-02-14T06:17:55;7.27;;;4.93;;
7193;SDS011;3638;48.820;9.244;2024-02-14T06:20:22;8.73;;;5.50;;
7193;SDS011;3638;48.820;9.244;2024-02-14T06:22:50;8.33;;;5.53;;
7193;SDS011;3638;48.820;9.244;2024-02-14T06:25:19;7.30;;;5.47;;
7193;SDS011;3638;48.820;9.244;2024-02-14T06:27:46;9.33;;;5.73;;
7193;SDS011;3638;48.820;9.244;2024-02-14T06:30:14;8.20;;;5.90;;
7193;SDS011;3638;48.820;9.244;2024-02-14T06:32:42;9.47;;;5.83;;
7193;SDS011;3638;48.820;9.244;2024-02-14T06:35:09;6.73;;;5.43;;
7193;SDS011;3638;48.820;9.244;2024-02-14T06:37:36;8.10;;;6.43;;
7193;SDS011;3638;48.820;9.244;2024-02-14T06:40:04;8.67;;;5.97;;
7193;SDS011;3638;48.820;9.244;2024-02-14T06:42:35;6.77;;;5.57;;
7193;SDS011;3638;48.820;9.244;2024-02-14T06:45:02;8.87;;;5.60;;
7193;SDS011;3638;48.820;9.244;2024-02-14T06:47:30;8.83;;;5.80;;
7193;SDS011;3638;48.820;9.244;2024-02-14T06:49:57;7.63;;;4.70;;
7193;SDS011;3638;48.820;9.244;2024-02-14T06:52:25;6.83;;;4.60;;
7193;SDS011;3638;48.820;9.244;2024-02-14T06:54:53;5.90;;;4.87;;
7193;SDS011;3638;48.820;9.244;2024-02-14T06:57:21;6.53;;;4.80;;
7193;SDS011;3638;48.820;9.244;2024-02-14T06:59:50;9.43;;;5.17;;
7193;SDS011;3638;48.820;9.244;2024-02-14T07:02:18;5.27;;;4.20;;
7193;SDS011;3638;48.820;9.244;2024-02-14T07:04:46;6.43;;;4.90;;
7193;SDS011;3638;48.820;9.244;2024-02-14T07:07:13;7.40;;;4.33;;
7193;SDS011;3638;48.820;9.244;2024-02-14T07:09:40;6.83;;;4.47;;
7193;SDS011;3638;48.820;9.244;2024-02-14T07:12:08;6.13;;;4.43;;
7193;SDS011;3638;48.820;9.244;2024-02-14T07:14:35;5.63;;;4.40;;
7193;SDS011;3638;48.820;9.244;2024-02-14T07:17:04;5.80;;;4.57;;
7193;SDS011;3638;48.820;9.244;2024-02-14T07:19:32;4.77;;;4.13;;
7193;SDS011;3638;48.820;9.244;2024-02-14T07:21:59;14.17;;;4.40;;
7193;SDS011;3638;48.820;9.244;2024-02-14T07:24:26;4.50;;;4.10;;
7193;SDS011;3638;48.820;9.244;2024-02-14T07:26:55;6.60;;;4.20;;
7193;SDS011;3638;48.820;9.244;2024-02-14T07:29:22;5.50;;;4.20;;
7193;SDS011;3638;48.820;9.244;2024-02-14T07:31:52;9.07;;;5.33;;
7193;SDS011;3638;48.820;9.244;2024-02-14T07:34:22;5.00;;;4.47;;
7193;SDS011;3638;48.820;9.244;2024-02-14T07:36:50;5.80;;;3.90;;
7193;SDS011;3638;48.820;9.244;2024-02-14T07:39:17;4.00;;;3.70;;
7193;SDS011;3638;48.820;9.244;2024-02-14T07:41:45;7.07;;;4.33;;
7193;SDS011;3638;48.820;9.244;2024-02-14T07:44:12;4.83;;;3.77;;
7193;SDS011;3638;48.820;9.244;2024-02-14T07:46:40;5.43;;;4.40;;
7193;SDS011;3638;48.820;9.244;2024-02-14T07:49:07;4.20;;;3.80;;
7193;SDS011;3638;48.820;9.244;2024-02-14T07:51:36;5.63;;;4.27;;
7193;SDS011;3638;48.820;9.244;2024-02-14T07:54:04;5.13;;;3.70;;
7193;SDS011;3638;48.820;9.244;2024-02-14T07:56:34;4.87;;;4.07;;
7193;SDS011;3638;48.820;9.244;2024-02-14T07:59:01;5.27;;;3.80;;
7193;SDS011;3638;48.820;9.244;2024-02-14T08:01:45;5.07;;;3.50;;
7193;SDS011;3638;48.820;9.244;2024-02-14T08:04:12;4.40;;;3.63;;
7193;SDS011;3638;48.820;9.244;2024-02-14T08:06:42;5.53;;;3.70;;
7193;SDS011;3638;48.820;9.244;2024-02-14T08:09:10;5.13;;;3.77;;
7193;SDS011;3638;48.820;9.244;2024-02-14T08:11:38;6.83;;;4.20;;
7193;SDS011;3638;48.820;9.244;2024-02-14T08:14:05;5.40;;;3.57;;
7193;SDS011;3638;48.820;9.244;2024-02-14T08:16:32;4.20;;;3.50;;
7193;SDS011;3638;48.820;9.244;2024-02-14T08:19:00;4.93;;;3.50;;
7193;SDS011;3638;48.820;9.244;2024-02-14T08:21:28;8.03;;;3.80;;
7193;SDS011;3638;48.820;9.244;2024-02-14T08:23:57;7.03;;;3.53;;
7193;SDS011;3638;48.820;9.244;2024-02-14T08:26:25;5.97;;;3.90;;
7193;SDS011;3638;48.820;9.244;2024-02-14T08:28:52;7.07;;;4.23;;
7193;SDS011;3638;48.820;9.244;2024-02-14T08:31:19;5.43;;;3.80;;
7193;SDS011;3638;48.820;9.244;2024-02-14T08:33:47;6.93;;;4.00;;
7193;SDS011;3638;48.820;9.244;2024-02-14T08:36:14;8.90;;;4.40;;
7193;SDS011;3638;48.820;9.244;2024-02-14T08:38:44;6.50;;;4.40;;
7193;SDS011;3638;48.820;9.244;2024-02-14T08:41:12;5.87;;;4.60;;
7193;SDS011;3638;48.820;9.244;2024-02-14T08:43:40;6.17;;;4.30;;
7193;SDS011;3638;48.820;9.244;2024-02-14T08:46:09;7.83;;;4.60;;
7193;SDS011;3638;48.820;9.244;2024-02-14T08:48:36;5.37;;;4.50;;
7193;SDS011;3638;48.820;9.244;2024-02-14T08:51:11;6.40;;;4.47;;
7193;SDS011;3638;48.820;9.244;2024-02-14T08:53:39;7.10;;;4.43;;
7193;SDS011;3638;48.820;9.244;2024-02-14T08:56:07;5.83;;;4.13;;
7193;SDS011;3638;48.820;9.244;2024-02-14T08:58:37;5.87;;;4.03;;
7193;SDS011;3638;48.820;9.244;2024-02-14T09:01:04;6.27;;;4.60;;
7193;SDS011;3638;48.820;9.244;2024-02-14T09:03:33;7.97;;;4.40;;
7193;SDS011;3638;48.820;9.244;2024-02-14T09:06:00;4.93;;;4.20;;
7193;SDS011;3638;48.820;9.244;2024-02-14T09:08:28;5.67;;;4.07;;
7193;SDS011;3638;48.820;9.244;2024-02-14T09:10:56;7.27;;;4.10;;
7193;SDS011;3638;48.820;9.244;2024-02-14T09:13:24;5.17;;;3.80;;
7193;SDS011;3638;48.820;9.244;2024-02-14T09:15:53;4.93;;;3.73;;
7193;SDS011;3638;48.820;9.244;2024-02-14T09:18:21;6.40;;;3.50;;
7193;SDS011;3638;48.820;9.244;2024-02-14T09:20:50;6.20;;;3.60;;
7193;SDS011;3638;48.820;9.244;2024-02-14T09:23:18;6.07;;;3.50;;
7193;SDS011;3638;48.820;9.244;2024-02-14T09:25:47;5.10;;;3.27;;
7193;SDS011;3638;48.820;9.244;2024-02-14T09:28:15;4.73;;;3.30;;
7193;SDS011;3638;48.820;9.244;2024-02-14T09:30:42;4.33;;;3.60;;
7193;SDS011;3638;48.820;9.244;2024-02-14T09:33:11;6.73;;;4.07;;
7193;SDS011;3638;48.820;9.244;2024-02-14T09:35:39;5.13;;;3.50;;
7193;SDS011;3638;48.820;9.244;2024-02-14T09:38:09;4.40;;;3.40;;
7193;SDS011;3638;48.820;9.244;2024-02-14T09:40:37;7.00;;;3.27;;
7193;SDS011;3638;48.820;9.244;2024-02-14T09:43:05;10.10;;;3.60;;
7193;SDS011;3638;48.820;9.244;2024-02-14T09:45:36;4.47;;;3.33;;
7193;SDS011;3638;48.820;9.244;2024-02-14T09:48:04;4.70;;;3.50;;
7193;SDS011;3638;48.820;9.244;2024-02-14T09:50:34;6.30;;;2.90;;
7193;SDS011;3638;48.820;9.244;2024-02-14T09:53:02;7.50;;;3.50;;
7193;SDS011;3638;48.820;9.244;2024-02-14T09:55:30;5.00;;;3.47;;
7193;SDS011;3638;48.820;9.244;2024-02-14T09:57:58;6.50;;;3.73;;
7193;SDS011;3638;48.820;9.244;2024-02-14T10:00:29;6.50;;;3.57;;
7193;SDS011;3638;48.820;9.244;2024-02-14T10:02:59;5.47;;;3.10;;
7193;SDS011;3638;48.820;9.244;2024-02-14T10:05:26;6.70;;;3.40;;
7193;SDS011;3638;48.820;9.244;2024-02-14T10:07:56;7.23;;;3.70;;
7193;SDS011;3638;48.820;9.244;2024-02-14T10:10:23;7.00;;;3.80;;
7193;SDS011;3638;48.820;9.244;2024-02-14T10:12:51;10.53;;;5.10;;
7193;SDS011;3638;48.820;9.244;2024-02-14T10:15:20;6.47;;;4.00;;
7193;SDS011;3638;48.820;9.244;2024-02-14T10:17:47;6.70;;;4.20;;
7193;SDS011;3638;48.820;9.244;2024-02-14T10:20:16;5.53;;;3.53;;
7193;SDS011;3638;48.820;9.244;2024-02-14T10:22:44;5.13;;;2.90;;
7193;SDS011;3638;48.820;9.244;2024-02-14T10:25:13;4.97;;;3.00;;
7193;SDS011;3638;48.820;9.244;2024-02-14T10:27:43;4.60;;;2.60;;
7193;SDS011;3638;48.820;9.244;2024-02-14T10:30:12;5.37;;;2.97;;
7193;SDS011;3638;48.820;9.244;2024-02-14T10:32:40;5.03;;;2.50;;
7193;SDS011;3638;48.820;9.244;2024-02-14T10:35:12;5.83;;;2.40;;
7193;SDS011;3638;48.820;9.244;2024-02-14T10:37:41;2.80;;;2.20;;
7193;SDS011;3638;48.820;9.244;2024-02-14T10:40:08;3.67;;;2.33;;
7193;SDS011;3638;48.820;9.244;2024-02-14T10:42:37;2.47;;;2.10;;
7193;SDS011;3638;48.820;9.244;2024-02-14T10:45:05;5.23;;;2.27;;
7193;SDS011;3638;48.820;9.244;2024-02-14T10:47:34;2.80;;;2.20;;
7193;SDS011;3638;48.820;9.244;2024-02-14T10:50:03;2.40;;;1.90;;
7193;SDS011;3638;48.820;9.244;2024-02-14T10:52:32;3.73;;;1.80;;
7193;SDS011;3638;48.820;9.244;2024-02-14T10:55:02;3.33;;;2.37;;
7193;SDS011;3638;48.820;9.244;2024-02-14T10:57:31;5.13;;;2.20;;
7193;SDS011;3638;48.820;9.244;2024-02-14T11:00:01;2.10;;;1.90;;
7193;SDS011;3638;48.820;9.244;2024-02-14T11:02:30;2.47;;;1.70;;
7193;SDS011;3638;48.820;9.244;2024-02-14T11:04:57;1.73;;;1.63;;
7193;SDS011;3638;48.820;9.244;2024-02-14T11:07:27;2.93;;;2.43;;
7193;SDS011;3638;48.820;9.244;2024-02-14T11:10:01;2.07;;;1.87;;
7193;SDS011;3638;48.820;9.244;2024-02-14T11:12:32;6.70;;;1.70;;
7193;SDS011;3638;48.820;9.244;2024-02-14T11:15:08;2.43;;;1.70;;
7193;SDS011;3638;48.820;9.244;2024-02-14T11:17:37;2.45;;;1.90;;
7193;SDS011;3638;48.820;9.244;2024-02-14T11:20:17;4.67;;;1.60;;
7193;SDS011;3638;48.820;9.244;2024-02-14T11:22:53;2.50;;;2.00;;
7193;SDS011;3638;48.820;9.244;2024-02-14T11:25:22;2.10;;;1.90;;
7193;SDS011;3638;48.820;9.244;2024-02-14T11:27:50;4.07;;;2.17;;
7193;SDS011;3638;48.820;9.244;2024-02-14T11:30:33;2.90;;;1.83;;
7193;SDS011;3638;48.820;9.244;2024-02-14T11:33:14;2.38;;;1.80;;
7193;SDS011;3638;48.820;9.244;2024-02-14T11:35:43;2.53;;;1.67;;
7193;SDS011;3638;48.820;9.244;2024-02-14T11:38:11;1.70;;;1.60;;
7193;SDS011;3638;48.820;9.244;2024-02-14T11:40:41;3.30;;;1.88;;
7193;SDS011;3638;48.820;9.244;2024-02-14T11:43:10;1.80;;;1.60;;
7193;SDS011;3638;48.820;9.244;2024-02-14T11:45:41;4.20;;;1.63;;
7193;SDS011;3638;48.820;9.244;2024-02-14T11:48:10;1.70;;;1.60;;
7193;SDS011;3638;48.820;9.244;2024-02-14T11:50:40;1.53;;;1.43;;
7193;SDS011;3638;48.820;9.244;2024-02-14T11:53:08;2.05;;;1.85;;
7193;SDS011;3638;48.820;9.244;2024-02-14T11:55:36;1.63;;;1.53;;
7193;SDS011;3638;48.820;9.244;2024-02-14T11:58:06;2.40;;;1.55;;
7193;SDS011;3638;48.820;9.244;2024-02-14T12:00:36;2.10;;;1.70;;
7193;SDS011;3638;48.820;9.244;2024-02-14T12:03:06;1.73;;;1.50;;
7193;SDS011;3638;48.820;9.244;2024-02-14T12:05:34;2.30;;;1.60;;
7193;SDS011;3638;48.820;9.244;2024-02-14T12:08:03;1.55;;;1.45;;
7193;SDS011;3638;48.820;9.244;2024-02-14T12:10:35;1.60;;;1.50;;
7193;SDS011;3638;48.820;9.244;2024-02-14T12:13:08;1.83;;;1.50;;
7193;SDS011;3638;48.820;9.244;2024-02-14T12:15:37;1.67;;;1.42;;
7193;SDS011;3638;48.820;9.244;2024-02-14T12:18:07;1.75;;;1.50;;
7193;SDS011;3638;48.820;9.244;2024-02-14T12:20:36;2.03;;;1.73;;
7193;SDS011;3638;48.820;9.244;2024-02-14T12:23:04;3.40;;;1.65;;
7193;SDS011;3638;48.820;9.244;2024-02-14T12:25:32;2.67;;;1.38;;
7193;SDS011;3638;48.820;9.244;2024-02-14T12:28:00;3.95;;;1.70;;
7193;SDS011;3638;48.820;9.244;2024-02-14T12:30:42;2.00;;;1.50;;
7193;SDS011;3638;48.820;9.244;2024-02-14T12:33:12;1.73;;;1.50;;
7193;SDS011;3638;48.820;9.244;2024-02-14T12:35:42;2.25;;;1.70;;
7193;SDS011;3638;48.820;9.244;2024-02-14T12:38:11;3.90;;;1.75;;
7193;SDS011;3638;48.820;9.244;2024-02-14T12:40:40;1.92;;;1.67;;
7193;SDS011;3638;48.820;9.244;2024-02-14T12:43:09;1.90;;;1.52;;
7193;SDS011;3638;48.820;9.244;2024-02-14T12:45:36;1.65;;;1.40;;
7193;SDS011;3638;48.820;9.244;2024-02-14T12:48:06;2.83;;;1.48;;
7193;SDS011;3638;48.820;9.244;2024-02-14T12:50:34;2.55;;;1.55;;
7193;SDS011;3638;48.820;9.244;2024-02-14T12:53:02;1.65;;;1.42;;
7193;SDS011;3638;48.820;9.244;2024-02-14T12:55:30;1.40;;;1.30;;
7193;SDS011;3638;48.820;9.244;2024-02-14T12:57:57;2.55;;;1.45;;
7193;SDS011;3638;48.820;9.244;2024-02-14T13:00:25;1.42;;;1.30;;
7193;SDS011;3638;48.820;9.244;2024-02-14T13:02:54;1.20;;;1.10;;
7193;SDS011;3638;48.820;9.244;2024-02-14T13:05:23;1.40;;;1.30;;
7193;SDS011;3638;48.820;9.244;2024-02-14T13:07:51;1.40;;;1.30;;
7193;SDS011;3638;48.820;9.244;2024-02-14T13:10:18;1.20;;;1.10;;
7193;SDS011;3638;48.820;9.244;2024-02-14T13:12:45;1.85;;;1.27;;
7193;SDS011;3638;48.820;9.244;2024-02-14T13:15:13;1.35;;;1.25;;
7193;SDS011;3638;48.820;9.244;2024-02-14T13:17:46;2.45;;;1.50;;
7193;SDS011;3638;48.820;9.244;2024-02-14T13:20:14;1.48;;;1.27;;
7193;SDS011;3638;48.820;9.244;2024-02-14T13:22:44;1.30;;;1.20;;
7193;SDS011;3638;48.820;9.244;2024-02-14T13:25:11;1.20;;;1.20;;
7193;SDS011;3638;48.820;9.244;2024-02-14T13:27:40;1.30;;;1.20;;
7193;SDS011;3638;48.820;9.244;2024-02-14T13:30:08;1.17;;;1.17;;
7193;SDS011;3638;48.820;9.244;2024-02-14T13:32:36;1.65;;;1.17;;
7193;SDS011;3638;48.820;9.244;2024-02-14T13:35:03;1.35;;;1.20;;
7193;SDS011;3638;48.820;9.244;2024-02-14T13:37:31;1.08;;;1.08;;
7193;SDS011;3638;48.820;9.244;2024-02-14T13:40:01;1.55;;;1.20;;
7193;SDS011;3638;48.820;9.244;2024-02-14T13:42:34;1.20;;;1.20;;
7193;SDS011;3638;48.820;9.244;2024-02-14T13:45:03;1.02;;;1.02;;
7193;SDS011;3638;48.820;9.244;2024-02-14T13:47:33;1.95;;;1.20;;
7193;SDS011;3638;48.820;9.244;2024-02-14T13:50:00;1.50;;;1.40;;
7193;SDS011;3638;48.820;9.244;2024-02-14T13:52:28;1.73;;;1.30;;
7193;SDS011;3638;48.820;9.244;2024-02-14T13:54:56;1.75;;;1.40;;
7193;SDS011;3638;48.820;9.244;2024-02-14T13:57:25;1.55;;;1.40;;
7193;SDS011;3638;48.820;9.244;2024-02-14T13:59:52;1.73;;;1.30;;
7193;SDS011;3638;48.820;9.244;2024-02-14T14:02:20;1.77;;;1.38;;
7193;SDS011;3638;48.820;9.244;2024-02-14T14:04:48;1.27;;;1.17;;
7193;SDS011;3638;48.820;9.244;2024-02-14T14:07:15;0.95;;;0.95;;
7193;SDS011;3638;48.820;9.244;2024-02-14T14:09:43;0.90;;;0.90;;
7193;SDS011;3638;48.820;9.244;2024-02-14T14:12:12;1.58;;;1.33;;
7193;SDS011;3638;48.820;9.244;2024-02-14T14:14:40;1.23;;;1.13;;
7193;SDS011;3638;48.820;9.244;2024-02-14T14:17:08;2.28;;;1.30;;
7193;SDS011;3638;48.820;9.244;2024-02-14T14:19:35;1.23;;;1.08;;
7193;SDS011;3638;48.820;9.244;2024-02-14T14:22:03;1.10;;;1.00;;
7193;SDS011;3638;48.820;9.244;2024-02-14T14:24:31;1.33;;;1.23;;
7193;SDS011;3638;48.820;9.244;2024-02-14T14:26:58;1.77;;;1.42;;
7193;SDS011;3638;48.820;9.244;2024-02-14T14:29:25;2.55;;;1.75;;
7193;SDS011;3638;48.820;9.244;2024-02-14T14:31:54;1.70;;;1.20;;
7193;SDS011;3638;48.820;9.244;2024-02-14T14:34:23;1.10;;;1.10;;
7193;SDS011;3638;48.820;9.244;2024-02-14T14:36:51;1.00;;;1.00;;
7193;SDS011;3638;48.820;9.244;2024-02-14T14:39:19;1.75;;;1.30;;
7193;SDS011;3638;48.820;9.244;2024-02-14T14:41:47;2.08;;;1.20;;
7193;SDS011;3638;48.820;9.244;2024-02-14T14:44:16;1.42;;;1.13;;
7193;SDS011;3638;48.820;9.244;2024-02-14T14:46:44;2.05;;;1.10;;
7193;SDS011;3638;48.820;9.244;2024-02-14T14:49:13;1.42;;;1.10;;
7193;SDS011;3638;48.820;9.244;2024-02-14T14:51:40;2.57;;;1.23;;
7193;SDS011;3638;48.820;9.244;2024-02-14T14:54:08;2.25;;;1.30;;
7193;SDS011;3638;48.820;9.244;2024-02-14T14:56:35;1.20;;;1.10;;
7193;SDS011;3638;48.820;9.244;2024-02-14T14:59:03;1.10;;;1.10;;
7193;SDS011;3638;48.820;9.244;2024-02-14T15:01:31;1.10;;;1.10;;
7193;SDS011;3638;48.820;9.244;2024-02-14T15:03:59;1.30;;;1.10;;
7193;SDS011;3638;48.820;9.244;2024-02-14T15:06:28;2.72;;;1.20;;
7193;SDS011;3638;48.820;9.244;2024-02-14T15:08:55;1.15;;;1.13;;
7193;SDS011;3638;48.820;9.244;2024-02-14T15:11:23;1.90;;;1.60;;
7193;SDS011;3638;48.820;9.244;2024-02-14T15:13:50;2.92;;;1.73;;
7193;SDS011;3638;48.820;9.244;2024-02-14T15:16:18;1.63;;;1.52;;
7193;SDS011;3638;48.820;9.244;2024-02-14T15:18:46;2.28;;;1.50;;
7193;SDS011;3638;48.820;9.244;2024-02-14T15:21:13;2.17;;;1.48;;